createdAt,value
2018-06-08T00:00:59.373Z,20.50
2018-06-08T00:03:30.767Z,20.50
2018-06-08T00:06:02.063Z,20.50
2018-06-08T00:08:33.152Z,20.40
2018-06-08T00:11:05.047Z,20.30
2018-06-08T00:13:36.930Z,20.20
2018-06-08T00:16:08.240Z,20.10
2018-06-08T00:18:39.680Z,20.00
2018-06-08T00:21:11.170Z,20.10
2018-06-08T00:23:42.275Z,20.20
2018-06-08T00:26:13.471Z,20.10
2018-06-08T00:28:45.383Z,20.10
2018-06-08T00:31:16.835Z,20.00
2018-06-08T00:33:48.355Z,20.10
2018-06-08T00:36:19.459Z,20.20
2018-06-08T00:41:21.555Z,20.20
2018-06-08T00:43:52.807Z,20.10
2018-06-08T00:46:24.988Z,20.00
2018-06-08T00:48:56.210Z,20.00
2018-06-08T00:51:27.350Z,20.00
2018-06-08T00:53:59.011Z,20.00
2018-06-08T00:56:46.535Z,20.20
2018-06-08T00:59:17.736Z,20.20
2018-06-08T01:01:49.048Z,20.30
2018-06-08T01:04:20.341Z,20.30
2018-06-08T01:06:51.515Z,20.50
2018-06-08T01:09:22.959Z,20.40
2018-06-08T01:11:54.592Z,20.20
2018-06-08T01:14:35.343Z,20.30
2018-06-08T01:17:07.364Z,20.40
2018-06-08T01:19:38.579Z,20.40
2018-06-08T01:22:09.912Z,20.40
2018-06-08T01:24:41.127Z,20.40
2018-06-08T01:27:12.642Z,20.30
2018-06-08T01:29:43.759Z,20.20
2018-06-08T01:32:14.735Z,20.30
2018-06-08T01:34:46.175Z,20.30
2018-06-08T01:37:17.816Z,20.20
2018-06-08T01:39:49.287Z,20.00
2018-06-08T01:42:20.758Z,19.90
2018-06-08T01:44:52.395Z,19.80
2018-06-08T01:47:23.850Z,19.80
2018-06-08T01:49:55.024Z,19.90
2018-06-08T01:52:26.324Z,19.80
2018-06-08T01:54:57.496Z,19.90
2018-06-08T01:57:28.819Z,19.70
2018-06-08T02:00:00.153Z,19.80
2018-06-08T02:02:32.833Z,20.00
2018-06-08T02:05:04.077Z,19.90
2018-06-08T02:07:35.892Z,20.10
2018-06-08T02:10:07.365Z,19.90
2018-06-08T02:12:38.621Z,19.90
2018-06-08T02:15:11.988Z,20.00
2018-06-08T02:17:44.266Z,19.90
2018-06-08T02:20:15.355Z,19.70
2018-06-08T02:22:46.803Z,19.90
2018-06-08T02:25:17.967Z,19.90
2018-06-08T02:27:49.488Z,19.80
2018-06-08T02:30:21.234Z,19.60
2018-06-08T02:32:53.013Z,19.50
2018-06-08T02:35:24.337Z,19.60
2018-06-08T02:37:55.743Z,19.70
2018-06-08T02:40:27.957Z,19.80
2018-06-08T02:42:59.251Z,19.80
2018-06-08T02:45:30.648Z,19.80
2018-06-08T02:48:02.097Z,19.90
2018-06-08T02:50:33.326Z,19.90
2018-06-08T02:53:04.633Z,19.80
2018-06-08T02:55:36.033Z,19.70
2018-06-08T02:58:07.487Z,19.50
2018-06-08T03:03:11.093Z,19.50
2018-06-08T03:05:42.481Z,19.60
2018-06-08T03:08:14.377Z,19.50
2018-06-08T03:10:46.176Z,19.50
2018-06-08T03:13:17.256Z,19.50
2018-06-08T03:15:48.643Z,19.50
2018-06-08T03:18:20.151Z,19.40
2018-06-08T03:20:51.471Z,19.50
2018-06-08T03:27:12.774Z,19.60
2018-06-08T03:29:43.988Z,19.50
2018-06-08T03:32:15.373Z,19.50
2018-06-08T03:34:46.801Z,19.60
2018-06-08T03:37:18.671Z,19.70
2018-06-08T03:39:50.187Z,19.60
2018-06-08T03:42:21.733Z,19.50
2018-06-08T03:44:53.160Z,19.50
2018-06-08T03:47:24.573Z,19.50
2018-06-08T03:49:56.363Z,19.50
2018-06-08T03:52:27.851Z,19.50
2018-06-08T03:54:59.308Z,19.50
2018-06-08T03:57:30.463Z,19.70
2018-06-08T04:00:01.908Z,19.90
2018-06-08T04:02:34.481Z,19.80
2018-06-08T04:05:05.745Z,19.80
2018-06-08T04:07:36.950Z,19.70
2018-06-08T04:10:08.466Z,20.00
2018-06-08T04:12:39.973Z,20.00
2018-06-08T04:15:11.416Z,19.90
2018-06-08T04:17:43.404Z,20.00
2018-06-08T04:20:14.692Z,20.10
2018-06-08T04:22:46.409Z,20.20
2018-06-08T04:30:19.073Z,20.10
2018-06-08T04:32:51.112Z,20.00
2018-06-08T04:35:22.417Z,20.20
2018-06-08T04:37:53.842Z,20.30
2018-06-08T04:40:25.106Z,20.40
2018-06-08T04:42:56.994Z,20.30
2018-06-08T04:45:28.704Z,20.40
2018-06-08T04:47:59.972Z,20.50
2018-06-08T04:50:31.376Z,20.60
2018-06-08T04:53:02.700Z,21.00
2018-06-08T04:55:33.887Z,21.50
2018-06-08T04:58:05.866Z,21.80
2018-06-08T05:00:37.291Z,22.10
2018-06-08T05:03:08.859Z,22.10
2018-06-08T05:05:40.227Z,21.90
2018-06-08T05:08:11.620Z,21.50
2018-06-08T05:10:43.019Z,21.10
2018-06-08T05:13:14.187Z,20.70
2018-06-08T05:15:45.580Z,20.60
2018-06-08T05:18:17.169Z,20.60
2018-06-08T05:20:49.321Z,20.60
2018-06-08T05:23:20.471Z,20.60
2018-06-08T05:25:51.848Z,20.70
2018-06-08T05:30:53.885Z,20.70
2018-06-08T05:33:25.196Z,20.70
2018-06-08T05:35:56.415Z,21.00
2018-06-08T05:38:27.952Z,21.00
2018-06-08T05:40:59.299Z,21.20
2018-06-08T05:43:30.484Z,21.40
2018-06-08T05:46:01.784Z,21.80
2018-06-08T05:48:33.089Z,22.00
2018-06-08T05:51:04.379Z,22.10
2018-06-08T05:53:35.972Z,21.80
2018-06-08T05:58:38.197Z,22.20
2018-06-08T06:01:10.032Z,22.80
2018-06-08T06:03:41.197Z,23.20
2018-06-08T06:06:12.531Z,22.90
2018-06-08T06:08:44.199Z,22.70
2018-06-08T06:11:16.542Z,22.60
2018-06-08T06:13:47.952Z,23.20
2018-06-08T06:16:19.189Z,22.80
2018-06-08T06:18:50.903Z,22.30
2018-06-08T06:21:22.393Z,22.50
2018-06-08T06:23:53.801Z,22.30
2018-06-08T06:26:25.567Z,22.10
2018-06-08T06:28:57.222Z,22.30
2018-06-08T06:31:28.662Z,22.40
2018-06-08T06:33:59.984Z,22.30
2018-06-08T06:36:31.563Z,22.00
2018-06-08T06:39:03.356Z,21.80
2018-06-08T06:41:34.811Z,21.60
2018-06-08T06:44:06.385Z,21.40
2018-06-08T06:46:37.727Z,21.50
2018-06-08T06:49:08.941Z,21.60
2018-06-08T06:51:40.511Z,21.50
2018-06-08T06:54:12.352Z,21.50
2018-06-08T06:56:43.996Z,21.60
2018-06-08T06:59:15.418Z,21.40
2018-06-08T07:01:47.146Z,21.40
2018-06-08T07:04:18.500Z,21.50
2018-06-08T07:06:50.316Z,21.50
2018-06-08T07:09:21.729Z,21.70
2018-06-08T07:14:24.126Z,21.90
2018-06-08T07:16:55.593Z,21.90
2018-06-08T07:19:26.971Z,21.90
2018-06-08T07:21:58.444Z,22.00
2018-06-08T07:24:30.310Z,22.40
2018-06-08T07:27:01.547Z,22.60
2018-06-08T07:29:32.915Z,22.70
2018-06-08T07:34:34.824Z,22.70
2018-06-08T07:37:06.321Z,23.10
2018-06-08T07:39:38.175Z,23.50
2018-06-08T07:42:09.408Z,23.90
2018-06-08T07:44:40.779Z,24.30
2018-06-08T07:47:12.212Z,24.50
2018-06-08T07:49:43.561Z,24.40
2018-06-08T07:52:14.779Z,25.30
2018-06-08T07:54:47.916Z,25.90
2018-06-08T07:57:19.452Z,26.20
2018-06-08T07:59:51.371Z,26.00
2018-06-08T08:02:23.512Z,26.60
2018-06-08T08:04:54.585Z,26.70
2018-06-08T08:07:25.899Z,26.90
2018-06-08T08:10:00.239Z,27.00
2018-06-08T08:12:32.183Z,27.60
2018-06-08T08:15:03.370Z,27.90
2018-06-08T08:17:34.616Z,27.80
2018-06-08T08:20:05.423Z,27.70
2018-06-08T08:22:36.583Z,27.80
2018-06-08T08:25:07.820Z,28.30
2018-06-08T08:27:39.263Z,28.00
2018-06-08T08:30:10.442Z,27.30
2018-06-08T08:32:41.338Z,26.90
2018-06-08T08:35:12.650Z,27.00
2018-06-08T08:37:43.671Z,26.80
2018-06-08T08:40:14.837Z,26.50
2018-06-08T08:42:46.094Z,26.10
2018-06-08T08:45:17.179Z,26.10
2018-06-08T08:47:48.580Z,26.20
2018-06-08T08:50:19.527Z,26.60
2018-06-08T08:52:50.514Z,27.60
2018-06-08T08:55:21.653Z,28.40
2018-06-08T08:57:52.677Z,28.80
2018-06-08T09:00:23.780Z,28.40
2018-06-08T09:02:54.704Z,27.70
2018-06-08T09:05:25.804Z,28.30
2018-06-08T09:07:56.623Z,28.00
2018-06-08T09:12:58.278Z,28.60
2018-06-08T09:15:29.755Z,28.30
2018-06-08T09:18:00.999Z,28.80
2018-06-08T09:20:32.292Z,29.20
2018-06-08T09:23:03.865Z,28.80
2018-06-08T09:25:34.856Z,28.50
2018-06-08T09:28:05.772Z,28.40
2018-06-08T09:30:36.698Z,28.70
2018-06-08T09:33:07.674Z,28.70
2018-06-08T09:35:38.807Z,28.90
2018-06-08T09:38:09.712Z,28.90
2018-06-08T09:40:40.871Z,28.30
2018-06-08T09:43:12.125Z,28.10
2018-06-08T09:45:43.612Z,28.10
2018-06-08T09:48:14.522Z,28.10
2018-06-08T09:50:45.471Z,27.70
2018-06-08T09:58:17.706Z,27.90
2018-06-08T10:00:49.570Z,27.90
2018-06-08T10:03:20.523Z,27.70
2018-06-08T10:05:51.688Z,27.50
2018-06-08T10:10:53.811Z,27.40
2018-06-08T10:13:24.987Z,27.40
2018-06-08T10:15:55.873Z,27.40
2018-06-08T10:18:27.016Z,27.30
2018-06-08T10:20:58.307Z,27.30
2018-06-08T10:23:29.768Z,27.30
2018-06-08T10:26:02.177Z,27.00
2018-06-08T10:28:34.385Z,27.20
2018-06-08T10:31:05.389Z,27.50
2018-06-08T10:33:36.860Z,27.60
2018-06-08T10:36:07.759Z,27.30
2018-06-08T10:38:39.190Z,27.50
2018-06-08T10:41:10.171Z,27.50
2018-06-08T10:43:41.275Z,27.30
2018-06-08T10:46:12.476Z,27.10
2018-06-08T10:48:43.870Z,27.00
2018-06-08T10:51:15.242Z,27.10
2018-06-08T10:53:46.224Z,27.40
2018-06-08T10:56:17.723Z,27.30
2018-06-08T10:58:49.006Z,27.00
2018-06-08T11:01:20.384Z,26.90
2018-06-08T11:03:52.761Z,26.90
2018-06-08T11:06:24.112Z,27.10
2018-06-08T11:08:55.316Z,27.10
2018-06-08T11:11:26.286Z,27.20
2018-06-08T11:13:57.201Z,27.40
2018-06-08T11:16:28.682Z,27.70
2018-06-08T11:18:59.658Z,28.00
2018-06-08T11:21:31.023Z,28.00
2018-06-08T11:24:01.832Z,27.70
2018-06-08T11:26:32.688Z,27.90
2018-06-08T11:29:03.918Z,28.00
2018-06-08T11:31:35.515Z,27.90
2018-06-08T11:34:06.698Z,28.00
2018-06-08T11:39:09.702Z,28.20
2018-06-08T11:41:41.602Z,28.20
2018-06-08T11:44:12.713Z,27.90
2018-06-08T11:46:44.663Z,28.00
2018-06-08T11:49:15.710Z,27.70
2018-06-08T11:51:46.980Z,27.50
2018-06-08T11:54:18.958Z,27.60
2018-06-08T11:56:49.907Z,27.70
2018-06-08T11:59:20.963Z,27.70
2018-06-08T12:01:52.139Z,27.80
2018-06-08T12:04:23.712Z,27.70
2018-06-08T12:06:54.754Z,27.80
2018-06-08T12:09:25.728Z,28.00
2018-06-08T12:11:57.015Z,28.20
2018-06-08T12:14:28.151Z,28.10
2018-06-08T12:16:59.163Z,27.90
2018-06-08T12:19:30.070Z,28.00
2018-06-08T12:22:01.506Z,27.90
2018-06-08T12:28:25.159Z,27.80
2018-06-08T12:30:56.765Z,28.10
2018-06-08T12:33:28.139Z,28.10
2018-06-08T12:35:59.600Z,28.30
2018-06-08T12:38:31.703Z,28.30
2018-06-08T12:41:03.404Z,28.40
2018-06-08T12:43:34.913Z,28.40
2018-06-08T12:46:07.380Z,28.40
2018-06-08T12:48:38.841Z,28.60
2018-06-08T12:51:13.887Z,28.50
2018-06-08T12:53:45.126Z,28.30
2018-06-08T12:56:17.242Z,28.30
2018-06-08T12:58:48.984Z,28.30
2018-06-08T13:01:20.601Z,28.20
2018-06-08T13:03:52.598Z,28.30
2018-06-08T13:06:24.864Z,28.00
2018-06-08T13:08:56.959Z,28.10
2018-06-08T13:11:28.483Z,28.10
2018-06-08T13:14:00.320Z,28.10
2018-06-08T13:16:31.992Z,27.90
2018-06-08T13:21:34.279Z,28.10
2018-06-08T13:24:05.554Z,28.10
2018-06-08T13:26:37.103Z,28.10
2018-06-08T13:29:09.478Z,28.10
2018-06-08T13:31:41.461Z,28.20
2018-06-08T13:34:12.952Z,28.20
2018-06-08T13:36:44.485Z,28.20
2018-06-08T13:39:15.906Z,28.30
2018-06-08T13:41:47.320Z,28.30
2018-06-08T13:44:19.020Z,28.10
2018-06-08T13:46:50.338Z,27.90
2018-06-08T13:49:21.746Z,27.70
2018-06-08T13:51:53.469Z,27.80
2018-06-08T13:54:25.103Z,27.70
2018-06-08T13:56:56.439Z,27.80
2018-06-08T13:59:28.633Z,27.80
2018-06-08T14:02:00.018Z,27.90
2018-06-08T14:04:32.280Z,27.80
2018-06-08T14:07:03.868Z,27.80
2018-06-08T14:09:35.520Z,27.90
2018-06-08T14:12:07.352Z,28.00
2018-06-08T14:14:38.854Z,28.10
2018-06-08T14:17:10.440Z,28.20
2018-06-08T14:22:12.766Z,28.30
2018-06-08T14:24:44.654Z,28.20
2018-06-08T14:27:16.402Z,28.30
2018-06-08T14:29:48.159Z,28.20
2018-06-08T14:32:19.735Z,28.30
2018-06-08T14:34:51.359Z,28.30
2018-06-08T14:37:23.194Z,28.20
2018-06-08T14:39:55.152Z,28.20
2018-06-08T14:42:26.402Z,28.10
2018-06-08T14:44:58.301Z,28.00
2018-06-08T14:47:29.529Z,28.00
2018-06-08T14:52:32.824Z,27.80
2018-06-08T14:57:35.027Z,27.80
2018-06-08T15:00:07.184Z,27.90
2018-06-08T15:02:38.659Z,27.90
2018-06-08T15:05:09.761Z,27.80
2018-06-08T15:07:41.927Z,27.70
2018-06-08T15:10:13.228Z,27.70
2018-06-08T15:12:45.060Z,27.60
2018-06-08T15:15:16.510Z,27.60
2018-06-08T15:17:47.999Z,27.70
2018-06-08T15:20:19.483Z,27.70
2018-06-08T15:22:50.924Z,27.80
2018-06-08T15:25:22.425Z,27.80
2018-06-08T15:27:53.973Z,27.90
2018-06-08T15:30:25.213Z,28.00
2018-06-08T15:32:56.746Z,28.00
2018-06-08T15:35:28.154Z,28.00
2018-06-08T15:37:59.569Z,27.90
2018-06-08T15:43:02.199Z,27.90
2018-06-08T15:45:34.496Z,27.80
2018-06-08T15:48:05.760Z,27.70
2018-06-08T15:50:37.140Z,27.70
2018-06-08T15:53:08.399Z,27.70
2018-06-08T15:55:39.844Z,27.70
2018-06-08T15:58:11.312Z,27.70
2018-06-08T16:00:44.394Z,27.60
2018-06-08T16:03:15.702Z,27.60
2018-06-08T16:05:47.668Z,27.60
2018-06-08T16:10:49.673Z,27.70
2018-06-08T16:13:21.163Z,27.70
2018-06-08T16:15:52.619Z,27.60
2018-06-08T16:18:24.238Z,27.60
2018-06-08T16:20:55.923Z,27.50
2018-06-08T16:23:27.329Z,27.60
2018-06-08T16:25:59.156Z,27.60
2018-06-08T16:31:01.470Z,27.50
2018-06-08T16:33:33.703Z,27.50
2018-06-08T16:36:05.457Z,27.50
2018-06-08T16:38:36.710Z,27.40
2018-06-08T16:41:08.228Z,27.40
2018-06-08T16:43:40.061Z,27.40
2018-06-08T16:46:12.331Z,27.40
2018-06-08T16:48:44.039Z,27.40
2018-06-08T16:51:15.495Z,27.40
2018-06-08T16:53:46.957Z,27.40
2018-06-08T16:56:18.522Z,27.40
2018-06-08T16:58:50.579Z,27.40
2018-06-08T17:01:22.734Z,27.40
2018-06-08T17:03:54.219Z,27.40
2018-06-08T17:06:25.738Z,27.30
2018-06-08T17:08:57.391Z,27.30
2018-06-08T17:11:28.639Z,27.30
2018-06-08T17:14:00.613Z,27.30
2018-06-08T17:16:32.284Z,27.20
2018-06-08T17:19:03.848Z,27.20
2018-06-08T17:21:35.332Z,27.20
2018-06-08T17:24:07.035Z,27.10
2018-06-08T17:26:39.355Z,27.10
2018-06-08T17:29:11.037Z,27.00
2018-06-08T17:31:42.427Z,27.00
2018-06-08T17:34:13.936Z,27.00
2018-06-08T17:36:45.394Z,26.90
2018-06-08T17:39:16.754Z,27.00
2018-06-08T17:44:18.806Z,26.90
2018-06-08T17:46:50.182Z,26.80
2018-06-08T17:49:21.516Z,26.80
2018-06-08T17:51:52.830Z,26.80
2018-06-08T17:54:24.208Z,26.70
2018-06-08T17:56:55.617Z,26.70
2018-06-08T17:59:27.050Z,26.60
2018-06-08T18:01:58.703Z,26.50
2018-06-08T18:04:30.168Z,26.50
2018-06-08T18:07:01.532Z,26.40
2018-06-08T18:09:32.942Z,26.40
2018-06-08T18:12:05.047Z,26.30
2018-06-08T18:14:36.548Z,26.30
2018-06-08T18:17:08.136Z,26.30
2018-06-08T18:19:39.855Z,26.30
2018-06-08T18:22:11.284Z,26.20
2018-06-08T18:24:42.536Z,26.20
2018-06-08T18:27:14.871Z,26.20
2018-06-08T18:29:46.408Z,26.20
2018-06-08T18:32:18.037Z,26.20
2018-06-08T18:34:49.338Z,26.10
2018-06-08T18:37:21.101Z,26.00
2018-06-08T18:39:52.591Z,26.00
2018-06-08T18:42:23.916Z,26.00
2018-06-08T18:44:55.314Z,26.00
2018-06-08T18:47:26.771Z,26.00
2018-06-08T18:49:58.153Z,26.00
2018-06-08T18:52:29.768Z,25.90
2018-06-08T18:55:01.326Z,25.80
2018-06-08T18:57:32.833Z,25.80
2018-06-08T19:00:04.294Z,25.80
2018-06-08T19:02:36.724Z,25.80
2018-06-08T19:05:08.136Z,25.80
2018-06-08T19:07:39.475Z,25.70
2018-06-08T19:12:41.814Z,25.70
2018-06-08T19:15:13.163Z,25.80
2018-06-08T19:17:44.594Z,25.70
2018-06-08T19:20:16.107Z,25.50
2018-06-08T19:22:48.123Z,25.40
2018-06-08T19:25:19.562Z,25.30
2018-06-08T19:27:50.993Z,25.30
2018-06-08T19:30:22.539Z,25.30
2018-06-08T19:32:53.949Z,25.40
2018-06-08T19:35:25.265Z,25.20
2018-06-08T19:37:56.814Z,25.20
2018-06-08T19:40:28.227Z,25.30
2018-06-08T19:45:30.902Z,25.20
2018-06-08T19:48:02.397Z,25.20
2018-06-08T19:53:04.704Z,25.00
2018-06-08T19:55:36.280Z,25.10
2018-06-08T19:58:08.798Z,25.10
2018-06-08T20:00:40.535Z,25.10
2018-06-08T20:03:11.859Z,25.10
2018-06-08T20:05:43.720Z,25.00
2018-06-08T20:08:15.032Z,24.90
2018-06-08T20:10:46.525Z,24.90
2018-06-08T20:13:18.117Z,24.90
2018-06-08T20:15:49.405Z,24.90
2018-06-08T20:18:21.089Z,24.80
2018-06-08T20:20:52.740Z,24.80
2018-06-08T20:23:24.222Z,24.80
2018-06-08T20:25:56.046Z,24.80
2018-06-08T20:28:27.261Z,24.80
2018-06-08T20:30:58.301Z,24.80
2018-06-08T20:33:29.615Z,24.70
2018-06-08T20:36:01.241Z,24.70
2018-06-08T20:38:32.531Z,24.60
2018-06-08T20:41:04.066Z,24.70
2018-06-08T20:43:36.565Z,24.70
2018-06-08T20:46:08.814Z,24.70
2018-06-08T20:48:40.235Z,24.70
2018-06-08T20:51:12.463Z,24.60
2018-06-08T20:53:44.825Z,24.60
2018-06-08T20:56:16.450Z,24.60
2018-06-08T20:58:47.777Z,24.50
2018-06-08T21:01:19.144Z,24.50
2018-06-08T21:03:50.509Z,24.40
2018-06-08T21:06:22.124Z,24.40
2018-06-08T21:08:53.436Z,24.50
2018-06-08T21:11:24.896Z,24.50
2018-06-08T21:13:56.577Z,24.40
2018-06-08T21:16:27.764Z,24.50
2018-06-08T21:18:59.038Z,24.40
2018-06-08T21:21:30.113Z,24.40
2018-06-08T21:24:00.926Z,24.40
2018-06-08T21:26:31.878Z,24.50
2018-06-08T21:29:02.812Z,24.50
2018-06-08T21:31:33.801Z,24.50
2018-06-08T21:34:05.339Z,24.50
2018-06-08T21:36:36.305Z,24.40
2018-06-08T21:39:08.550Z,24.40
2018-06-08T21:41:39.400Z,24.30
2018-06-08T21:44:10.362Z,24.20
2018-06-08T21:46:41.282Z,24.30
2018-06-08T21:49:12.389Z,24.40
2018-06-08T21:51:43.290Z,24.40
2018-06-08T21:54:14.308Z,24.40
2018-06-08T21:56:45.961Z,24.50
2018-06-08T21:59:16.852Z,24.50
2018-06-08T22:01:48.349Z,24.40
2018-06-08T22:04:19.410Z,24.40
2018-06-08T22:06:50.315Z,24.30
2018-06-08T22:09:21.212Z,24.40
2018-06-08T22:11:52.141Z,24.50
2018-06-08T22:14:23.071Z,24.50
2018-06-08T22:16:53.956Z,24.40
2018-06-08T22:21:55.229Z,24.50
2018-06-08T22:24:26.126Z,24.50
2018-06-08T22:26:57.109Z,24.60
2018-06-08T22:29:28.972Z,24.60
2018-06-08T22:32:01.104Z,24.50
2018-06-08T22:34:33.154Z,24.50
2018-06-08T22:37:04.636Z,24.50
2018-06-08T22:39:36.261Z,24.50
2018-06-08T22:42:07.728Z,24.50
2018-06-08T22:44:39.300Z,24.40
2018-06-08T22:47:11.003Z,24.30
2018-06-08T22:49:42.532Z,24.30
2018-06-08T22:52:14.639Z,24.00
2018-06-08T22:54:46.054Z,23.20
2018-06-08T22:57:17.186Z,22.40
2018-06-08T22:59:48.396Z,21.30
2018-06-08T23:02:19.824Z,21.00
2018-06-08T23:04:51.287Z,20.90
2018-06-08T23:07:22.654Z,20.70
2018-06-08T23:09:54.096Z,20.50
2018-06-08T23:12:25.357Z,20.50
2018-06-08T23:17:27.620Z,20.50
2018-06-08T23:22:29.828Z,20.40
2018-06-08T23:25:01.986Z,20.40
2018-06-08T23:27:33.355Z,20.50
2018-06-08T23:30:05.162Z,20.40
2018-06-08T23:32:36.367Z,20.30
2018-06-08T23:35:07.702Z,20.30
2018-06-08T23:37:39.047Z,20.50
2018-06-08T23:40:11.197Z,20.50
2018-06-08T23:42:42.452Z,20.40
2018-06-08T23:45:13.581Z,20.50
2018-06-08T23:47:44.728Z,20.50
2018-06-08T23:50:16.027Z,20.40
2018-06-08T23:52:47.329Z,20.40
2018-06-08T23:55:19.443Z,20.30
2018-06-08T23:57:51.246Z,20.40
